Time;durP1;ratioP1;P1;durP2;ratioP2;P2;SDS_P1;SDS_P2;PMS_P1;PMS_P2;Temp;Humidity;BMP_temperature;BMP_pressure;BME280_temperature;BME280_humidity;BME280_pressure;Samples;Min_cycle;Max_cycle;Signal;HPM_P1;HPM_P2
2023/06/28 00:00:41;0.00;0.00;0.62;0.00;0.00;0.62;2.50;1.93;;;31.70;23.10;;;;;;2231849;62;20380;-64
2023/06/28 00:03:27;0.00;0.00;0.62;0.00;0.00;0.62;2.60;1.30;;;31.70;23.10;;;;;;2230908;62;20400;-63
2023/06/28 00:06:11;0.00;0.00;0.62;0.00;0.00;0.62;2.47;1.47;;;31.70;23.10;;;;;;2229098;62;20376;-63
2023/06/28 00:08:56;0.00;0.00;0.62;0.00;0.00;0.62;2.00;1.20;;;31.70;23.10;;;;;;2231631;62;20375;-62
2023/06/28 00:11:41;0.00;0.00;0.62;0.00;0.00;0.62;3.50;1.73;;;31.70;23.10;;;;;;2231418;62;20372;-63
2023/06/28 00:14:25;0.00;0.00;0.62;0.00;0.00;0.62;1.97;1.20;;;31.70;23.10;;;;;;2232089;62;20388;-63
2023/06/28 00:17:11;0.00;0.00;0.62;0.00;0.00;0.62;2.27;1.37;;;31.70;23.10;;;;;;2232005;62;20371;-63
2023/06/28 00:19:59;0.00;0.00;0.62;0.00;0.00;0.62;1.90;1.60;;;31.70;23.10;;;;;;2231539;62;20425;-63
2023/06/28 00:22:46;0.00;0.00;0.62;0.00;0.00;0.62;2.70;1.50;;;31.70;23.60;;;;;;2231925;62;20923;-64
2023/06/28 00:25:32;0.00;0.00;0.62;0.00;0.00;0.62;2.73;1.33;;;31.70;23.10;;;;;;2231331;62;20395;-63
2023/06/28 00:28:17;0.00;0.00;0.62;0.00;0.00;0.62;2.07;1.30;;;31.70;23.10;;;;;;2228529;62;20371;-63
2023/06/28 00:31:02;0.00;0.00;0.62;0.00;0.00;0.62;1.80;1.33;;;31.70;23.10;;;;;;2232214;62;20407;-63
2023/06/28 00:33:49;0.00;0.00;0.62;0.00;0.00;0.62;2.00;1.17;;;31.70;23.10;;;;;;2242194;48;20436;-63
2023/06/28 00:36:35;0.00;0.00;0.62;0.00;0.00;0.62;2.37;1.50;;;31.60;23.60;;;;;;2234740;62;20405;-62
2023/06/28 00:39:21;0.00;0.00;0.62;0.00;0.00;0.62;2.00;1.10;;;31.60;23.00;;;;;;2234159;62;20377;-63
2023/06/28 00:42:07;0.00;0.00;0.62;0.00;0.00;0.62;1.63;1.10;;;31.60;23.00;;;;;;2231464;62;20392;-62
2023/06/28 00:44:52;0.00;0.00;0.62;0.00;0.00;0.62;4.63;1.53;;;31.60;23.00;;;;;;2228061;62;20396;-62
2023/06/28 00:47:37;0.00;0.00;0.62;0.00;0.00;0.62;2.57;1.53;;;31.60;23.60;;;;;;2230250;62;20409;-60
2023/06/28 00:50:25;0.00;0.00;0.62;0.00;0.00;0.62;2.17;1.43;;;31.60;23.00;;;;;;2225001;62;20406;-63
2023/06/28 00:53:14;0.00;0.00;0.62;0.00;0.00;0.62;1.90;1.10;;;31.60;23.10;;;;;;2230252;62;20790;-62
2023/06/28 00:55:59;0.00;0.00;0.62;0.00;0.00;0.62;2.20;1.20;;;31.60;23.10;;;;;;2227086;62;20369;-63
2023/06/28 00:58:44;0.00;0.00;0.62;0.00;0.00;0.62;1.57;1.00;;;31.60;23.00;;;;;;2228122;62;20365;-63
2023/06/28 01:01:30;0.00;0.00;0.62;0.00;0.00;0.62;3.20;1.53;;;31.60;23.00;;;;;;2228229;62;20434;-63
2023/06/28 01:04:15;0.00;0.00;0.62;0.00;0.00;0.62;3.40;1.33;;;31.60;23.10;;;;;;2227093;62;20385;-63
2023/06/28 01:07:00;0.00;0.00;0.62;0.00;0.00;0.62;2.63;1.13;;;31.60;23.00;;;;;;2227847;62;20806;-63
2023/06/28 01:09:47;0.00;0.00;0.62;0.00;0.00;0.62;2.20;1.03;;;31.50;23.00;;;;;;2226643;62;20435;-62
2023/06/28 01:12:33;0.00;0.00;0.62;0.00;0.00;0.62;1.97;1.27;;;31.50;23.00;;;;;;2230023;62;20456;-63
2023/06/28 01:15:17;0.00;0.00;0.62;0.00;0.00;0.62;1.90;1.20;;;31.50;23.00;;;;;;2228117;62;20365;-63
2023/06/28 01:18:02;0.00;0.00;0.62;0.00;0.00;0.62;2.40;1.37;;;31.50;23.00;;;;;;2227257;62;20372;-63
2023/06/28 01:20:49;0.00;0.00;0.62;0.00;0.00;0.62;2.17;1.23;;;31.50;23.00;;;;;;2227618;62;20369;-62
2023/06/28 01:23:35;0.00;0.00;0.62;0.00;0.00;0.62;2.03;1.20;;;31.50;23.00;;;;;;2227791;62;20393;-63
2023/06/28 01:26:21;0.00;0.00;0.62;0.00;0.00;0.62;2.07;1.30;;;31.50;23.00;;;;;;2229496;62;20381;-63
2023/06/28 01:29:07;0.00;0.00;0.62;0.00;0.00;0.62;2.00;1.00;;;31.40;22.90;;;;;;2227499;62;20495;-63
2023/06/28 01:31:53;0.00;0.00;0.62;0.00;0.00;0.62;1.80;1.20;;;31.40;23.00;;;;;;2228205;62;20390;-62
2023/06/28 01:34:41;0.00;0.00;0.62;0.00;0.00;0.62;1.70;1.07;;;31.40;23.00;;;;;;2230173;62;20453;-62
2023/06/28 01:37:26;0.00;0.00;0.62;0.00;0.00;0.62;2.23;1.37;;;31.40;23.00;;;;;;2227510;62;20464;-63
2023/06/28 01:40:14;0.00;0.00;0.62;0.00;0.00;0.62;2.13;1.30;;;31.40;23.00;;;;;;2226725;62;20903;-63
2023/06/28 01:42:58;0.00;0.00;0.62;0.00;0.00;0.62;2.10;1.30;;;31.40;23.00;;;;;;2228093;62;20428;-62
2023/06/28 01:45:45;0.00;0.00;0.62;0.00;0.00;0.62;2.40;1.80;;;31.40;23.00;;;;;;2230364;62;20427;-63
2023/06/28 01:48:30;0.00;0.00;0.62;0.00;0.00;0.62;1.60;1.40;;;31.40;23.00;;;;;;2226885;62;20392;-63
2023/06/28 01:51:15;0.00;0.00;0.62;0.00;0.00;0.62;2.07;1.20;;;31.40;23.00;;;;;;2225119;62;20904;-63
2023/06/28 01:54:01;0.00;0.00;0.62;0.00;0.00;0.62;2.23;1.20;;;31.40;23.00;;;;;;2227794;62;20389;-62
2023/06/28 01:56:48;0.00;0.00;0.62;0.00;0.00;0.62;2.03;1.27;;;31.40;23.00;;;;;;2230113;62;20369;-63
2023/06/28 01:59:33;0.00;0.00;0.62;0.00;0.00;0.62;2.37;1.27;;;31.30;22.90;;;;;;2230061;62;20437;-64
2023/06/28 02:02:17;0.00;0.00;0.62;0.00;0.00;0.62;1.93;1.23;;;31.40;23.00;;;;;;2226904;62;20381;-64
2023/06/28 02:05:02;0.00;0.00;0.62;0.00;0.00;0.62;1.67;1.20;;;31.40;23.00;;;;;;2230312;62;20438;-63
2023/06/28 02:07:47;0.00;0.00;0.62;0.00;0.00;0.62;2.30;1.10;;;31.40;23.00;;;;;;2228145;62;20394;-64
2023/06/28 02:10:35;0.00;0.00;0.62;0.00;0.00;0.62;1.93;1.30;;;31.40;23.00;;;;;;2226870;62;20377;-63
2023/06/28 02:13:21;0.00;0.00;0.62;0.00;0.00;0.62;2.13;1.20;;;31.30;23.00;;;;;;2224892;62;20386;-63
2023/06/28 02:16:06;0.00;0.00;0.62;0.00;0.00;0.62;1.80;1.10;;;31.30;23.00;;;;;;2227763;62;20372;-64
2023/06/28 02:18:51;0.00;0.00;0.62;0.00;0.00;0.62;2.83;1.33;;;31.30;23.50;;;;;;2229676;62;20809;-63
2023/06/28 02:21:35;0.00;0.00;0.62;0.00;0.00;0.62;1.60;0.90;;;31.30;23.00;;;;;;2228049;62;20513;-63
2023/06/28 02:24:20;0.00;0.00;0.62;0.00;0.00;0.62;3.00;1.30;;;31.30;22.90;;;;;;2226613;62;20405;-63
2023/06/28 02:27:06;0.00;0.00;0.62;0.00;0.00;0.62;2.03;1.13;;;31.30;23.00;;;;;;2230120;62;20364;-64
2023/06/28 02:29:52;0.00;0.00;0.62;0.00;0.00;0.62;2.03;1.50;;;31.30;23.00;;;;;;2227516;62;20377;-64
2023/06/28 02:32:36;0.00;0.00;0.62;0.00;0.00;0.62;1.97;1.30;;;31.30;23.00;;;;;;2226978;62;20373;-63
2023/06/28 02:35:21;0.00;0.00;0.62;0.00;0.00;0.62;1.50;1.00;;;31.30;23.00;;;;;;2232141;62;20948;-64
2023/06/28 02:38:06;0.00;0.00;0.62;0.00;0.00;0.62;2.00;1.23;;;31.30;23.00;;;;;;2231900;62;20464;-63
2023/06/28 02:40:51;0.00;0.00;0.62;0.00;0.00;0.62;1.83;1.13;;;31.30;23.00;;;;;;2230499;62;20452;-63
2023/06/28 02:43:35;0.00;0.00;0.62;0.00;0.00;0.62;1.80;1.07;;;31.30;23.50;;;;;;2232329;62;20395;-64
2023/06/28 02:46:22;0.00;0.00;0.62;0.00;0.00;0.62;2.60;1.40;;;31.20;23.00;;;;;;2230847;62;20423;-63
2023/06/28 02:49:07;0.00;0.00;0.62;0.00;0.00;0.62;1.50;1.00;;;31.20;23.00;;;;;;2231570;62;20376;-63
2023/06/28 02:51:52;0.00;0.00;0.62;0.00;0.00;0.62;1.90;1.00;;;31.20;23.00;;;;;;2232143;62;20467;-64
2023/06/28 02:54:37;0.00;0.00;0.62;0.00;0.00;0.62;2.50;1.30;;;31.20;23.00;;;;;;2231426;62;20862;-64
2023/06/28 02:57:22;0.00;0.00;0.62;0.00;0.00;0.62;2.03;0.93;;;31.20;23.00;;;;;;2232125;62;20420;-63
2023/06/28 03:00:11;0.00;0.00;0.62;0.00;0.00;0.62;2.40;1.80;;;31.20;23.00;;;;;;2231507;62;20375;-64
2023/06/28 03:02:58;0.00;0.00;0.62;0.00;0.00;0.62;2.00;1.20;;;31.20;23.00;;;;;;2230933;62;20387;-63
2023/06/28 03:05:43;0.00;0.00;0.62;0.00;0.00;0.62;2.10;1.40;;;31.20;23.50;;;;;;2231502;62;21038;-64
2023/06/28 03:08:28;0.00;0.00;0.62;0.00;0.00;0.62;2.63;1.57;;;31.20;23.00;;;;;;2231083;62;20401;-64
2023/06/28 03:11:13;0.00;0.00;0.62;0.00;0.00;0.62;3.20;2.00;;;31.20;23.00;;;;;;2231737;62;20387;-63
2023/06/28 03:13:57;0.00;0.00;0.62;0.00;0.00;0.62;2.80;2.40;;;31.20;23.00;;;;;;2231598;62;20475;-63
2023/06/28 03:16:43;0.00;0.00;0.62;0.00;0.00;0.62;4.20;3.30;;;31.20;23.00;;;;;;2231316;62;20417;-63
2023/06/28 03:19:30;0.00;0.00;0.62;0.00;0.00;0.62;3.60;2.83;;;31.10;23.50;;;;;;2231582;62;20417;-62
2023/06/28 03:22:15;0.00;0.00;0.62;0.00;0.00;0.62;4.13;3.33;;;31.10;23.00;;;;;;2231965;62;20384;-63
2023/06/28 03:24:59;0.00;0.00;0.62;0.00;0.00;0.62;4.93;3.50;;;31.10;23.00;;;;;;2228388;62;20473;-64
2023/06/28 03:27:45;0.00;0.00;0.62;0.00;0.00;0.62;3.53;2.80;;;31.10;23.00;;;;;;2231954;62;20371;-63
2023/06/28 03:30:31;0.00;0.00;0.62;0.00;0.00;0.62;4.83;3.47;;;31.10;23.00;;;;;;2227724;62;20424;-64
2023/06/28 03:33:15;0.00;0.00;0.62;0.00;0.00;0.62;5.03;4.10;;;31.10;23.00;;;;;;2231474;62;20485;-64
2023/06/28 03:36:01;0.00;0.00;0.62;0.00;0.00;0.62;6.40;4.10;;;31.10;23.00;;;;;;2232126;62;20520;-63
2023/06/28 03:38:47;0.00;0.00;0.62;0.00;0.00;0.62;8.50;4.40;;;31.10;23.00;;;;;;2230348;62;20408;-63
2023/06/28 03:41:32;0.00;0.00;0.62;0.00;0.00;0.62;4.70;4.00;;;31.10;23.00;;;;;;2231945;62;20412;-64
2023/06/28 03:44:16;0.00;0.00;0.62;0.00;0.00;0.62;4.47;3.43;;;31.10;23.00;;;;;;2231991;62;20395;-63
2023/06/28 03:47:01;0.00;0.00;0.62;0.00;0.00;0.62;4.40;4.00;;;31.10;23.00;;;;;;2230861;62;20380;-62
2023/06/28 03:49:47;0.00;0.00;0.62;0.00;0.00;0.62;6.20;4.30;;;31.10;23.00;;;;;;2231584;62;20837;-62
2023/06/28 03:52:33;0.00;0.00;0.62;0.00;0.00;0.62;4.90;3.80;;;31.10;23.00;;;;;;2232142;62;20911;-59
2023/06/28 03:55:18;0.00;0.00;0.62;0.00;0.00;0.62;4.40;4.00;;;31.10;23.00;;;;;;2229160;62;20385;-64
2023/06/28 03:58:03;0.00;0.00;0.62;0.00;0.00;0.62;4.30;3.70;;;31.10;23.00;;;;;;2232875;62;20385;-61
2023/06/28 04:00:48;0.00;0.00;0.62;0.00;0.00;0.62;4.10;3.63;;;31.00;23.00;;;;;;2231911;62;20372;-62
2023/06/28 04:03:33;0.00;0.00;0.62;0.00;0.00;0.62;5.20;3.97;;;31.00;23.00;;;;;;2232883;62;20392;-64
2023/06/28 04:06:19;0.00;0.00;0.62;0.00;0.00;0.62;4.27;3.87;;;31.00;23.00;;;;;;2232999;62;20400;-62
2023/06/28 04:09:05;0.00;0.00;0.62;0.00;0.00;0.62;4.30;3.80;;;31.00;23.00;;;;;;2231074;62;20863;-62
2023/06/28 04:11:50;0.00;0.00;0.62;0.00;0.00;0.62;4.70;3.87;;;31.00;23.00;;;;;;2232347;62;20380;-62
2023/06/28 04:14:35;0.00;0.00;0.62;0.00;0.00;0.62;5.00;3.47;;;31.00;23.00;;;;;;2232091;62;20464;-62
2023/06/28 04:17:19;0.00;0.00;0.62;0.00;0.00;0.62;3.57;3.07;;;31.00;23.00;;;;;;2232614;62;20380;-62
2023/06/28 04:20:07;0.00;0.00;0.62;0.00;0.00;0.62;3.73;3.33;;;31.00;23.00;;;;;;2232331;62;20353;-63
2023/06/28 04:22:53;0.00;0.00;0.62;0.00;0.00;0.62;4.10;3.50;;;31.00;23.00;;;;;;2231237;62;20934;-62
2023/06/28 04:25:39;0.00;0.00;0.62;0.00;0.00;0.62;4.90;3.13;;;31.00;23.10;;;;;;2232571;62;20399;-63
2023/06/28 04:28:24;0.00;0.00;0.62;0.00;0.00;0.62;3.10;2.60;;;31.00;23.10;;;;;;2231781;62;20389;-63
2023/06/28 04:31:09;0.00;0.00;0.62;0.00;0.00;0.62;3.97;3.47;;;31.00;23.10;;;;;;2231431;62;20364;-63
2023/06/28 04:33:57;0.00;0.00;0.62;0.00;0.00;0.62;3.30;2.90;;;31.00;23.10;;;;;;2229047;62;20387;-63
2023/06/28 04:36:42;0.00;0.00;0.62;0.00;0.00;0.62;3.27;2.73;;;31.00;23.10;;;;;;2228406;62;20388;-62
2023/06/28 04:39:27;0.00;0.00;0.62;0.00;0.00;0.62;4.13;2.87;;;31.00;23.60;;;;;;2228349;62;20376;-63
2023/06/28 04:42:14;0.00;0.00;0.62;0.00;0.00;0.62;3.30;2.90;;;30.90;23.10;;;;;;2228309;62;20380;-62
2023/06/28 04:44:59;0.00;0.00;0.62;0.00;0.00;0.62;4.73;3.20;;;30.90;23.00;;;;;;2227469;62;20902;-63
2023/06/28 04:47:44;0.00;0.00;0.62;0.00;0.00;0.62;3.80;3.03;;;30.90;23.60;;;;;;2228759;62;20416;-61
2023/06/28 04:50:28;0.00;0.00;0.62;0.00;0.00;0.62;3.47;3.10;;;30.90;23.10;;;;;;2228000;62;20420;-62
2023/06/28 04:53:13;0.00;0.00;0.62;0.00;0.00;0.62;4.40;3.53;;;30.90;23.10;;;;;;2227647;62;20428;-60
2023/06/28 04:56:00;0.00;0.00;0.62;0.00;0.00;0.62;4.30;3.43;;;30.90;23.10;;;;;;2228658;62;20440;-61
2023/06/28 04:58:46;0.00;0.00;0.62;0.00;0.00;0.62;4.70;4.23;;;30.90;23.10;;;;;;2228168;62;20423;-67
2023/06/28 05:01:31;0.00;0.00;0.62;0.00;0.00;0.62;5.03;4.13;;;30.90;23.10;;;;;;2228037;62;20415;-62
2023/06/28 05:04:15;0.00;0.00;0.62;0.00;0.00;0.62;4.70;4.10;;;30.90;23.10;;;;;;2227965;62;20542;-61
2023/06/28 05:07:04;0.00;0.00;0.62;0.00;0.00;0.62;5.23;3.83;;;30.90;23.10;;;;;;2227762;62;20482;-62
2023/06/28 05:09:48;0.00;0.00;0.62;0.00;0.00;0.62;5.00;4.30;;;30.90;23.10;;;;;;2227963;62;20437;-64
2023/06/28 05:12:33;0.00;0.00;0.62;0.00;0.00;0.62;5.03;4.50;;;30.90;23.20;;;;;;2228537;62;20380;-64
2023/06/28 05:15:19;0.00;0.00;0.62;0.00;0.00;0.62;7.00;5.73;;;30.90;23.20;;;;;;2227481;62;20373;-63
2023/06/28 05:18:04;0.00;0.00;0.62;0.00;0.00;0.62;5.37;4.80;;;30.90;23.20;;;;;;2228389;62;20376;-62
2023/06/28 05:20:49;0.00;0.00;0.62;0.00;0.00;0.62;6.40;5.30;;;30.90;23.20;;;;;;2228295;62;20433;-62
2023/06/28 05:23:34;0.00;0.00;0.62;0.00;0.00;0.62;5.97;5.37;;;30.90;23.20;;;;;;2227538;62;20399;-63
2023/06/28 05:26:19;0.00;0.00;0.62;0.00;0.00;0.62;6.80;6.10;;;30.90;23.20;;;;;;2228218;62;20779;-62
2023/06/28 05:29:03;0.00;0.00;0.62;0.00;0.00;0.62;7.80;6.57;;;30.90;23.20;;;;;;2227216;62;20408;-61
2023/06/28 05:31:50;0.00;0.00;0.62;0.00;0.00;0.62;6.77;5.93;;;30.90;23.20;;;;;;2228239;62;20404;-62
2023/06/28 05:34:34;0.00;0.00;0.62;0.00;0.00;0.62;8.63;7.57;;;30.90;23.20;;;;;;2258571;57;20469;-63
2023/06/28 05:37:19;0.00;0.00;0.62;0.00;0.00;0.62;8.00;7.20;;;30.90;23.20;;;;;;2234964;62;20410;-62
2023/06/28 05:40:05;0.00;0.00;0.62;0.00;0.00;0.62;8.30;6.47;;;30.90;23.20;;;;;;2235773;62;20369;-61
2023/06/28 05:42:49;0.00;0.00;0.62;0.00;0.00;0.62;7.07;6.37;;;30.90;23.20;;;;;;2236160;62;20993;-64
2023/06/28 05:45:34;0.00;0.00;0.62;0.00;0.00;0.62;7.23;6.20;;;30.90;23.20;;;;;;2235410;62;20366;-63
2023/06/28 05:48:20;0.00;0.00;0.62;0.00;0.00;0.62;8.00;6.90;;;30.90;23.20;;;;;;2235606;62;20450;-67
2023/06/28 05:51:09;0.00;0.00;0.62;0.00;0.00;0.62;9.40;7.67;;;30.90;23.20;;;;;;2235431;62;20382;-63
2023/06/28 05:56:38;0.00;0.00;0.62;0.00;0.00;0.62;7.93;6.53;;;30.90;23.20;;;;;;2237649;62;20371;-63
2023/06/28 05:59:22;0.00;0.00;0.62;0.00;0.00;0.62;8.43;7.40;;;30.90;23.30;;;;;;2234758;62;20418;-63
2023/06/28 06:02:07;0.00;0.00;0.62;0.00;0.00;0.62;7.17;6.47;;;30.90;23.30;;;;;;2237249;62;20366;-64
2023/06/28 06:04:54;0.00;0.00;0.62;0.00;0.00;0.62;7.20;6.50;;;30.90;23.30;;;;;;2236055;62;20479;-64
2023/06/28 06:07:39;0.00;0.00;0.62;0.00;0.00;0.62;7.30;6.53;;;30.90;23.30;;;;;;2234307;62;20371;-63
2023/06/28 06:10:24;0.00;0.00;0.62;0.00;0.00;0.62;7.27;6.57;;;30.90;23.30;;;;;;2235444;62;20367;-64
2023/06/28 06:13:09;0.00;0.00;0.62;0.00;0.00;0.62;6.37;5.40;;;30.90;23.30;;;;;;2234998;62;20470;-62
2023/06/28 06:15:54;0.00;0.00;0.62;0.00;0.00;0.62;6.37;5.73;;;30.90;23.30;;;;;;2236038;62;20367;-63
2023/06/28 06:18:40;0.00;0.00;0.62;0.00;0.00;0.62;6.37;5.70;;;30.90;23.30;;;;;;2235404;62;20712;-62
2023/06/28 06:21:26;0.00;0.00;0.62;0.00;0.00;0.62;6.23;5.30;;;30.90;23.30;;;;;;2235400;62;20449;-62
2023/06/28 06:24:11;0.00;0.00;0.62;0.00;0.00;0.62;6.50;5.90;;;30.90;23.30;;;;;;2235840;62;20806;-63
2023/06/28 06:26:55;0.00;0.00;0.62;0.00;0.00;0.62;6.00;5.40;;;30.90;23.30;;;;;;2235793;62;20367;-64
2023/06/28 06:29:40;0.00;0.00;0.62;0.00;0.00;0.62;6.33;5.67;;;30.90;23.30;;;;;;2233953;62;20441;-67
2023/06/28 06:32:25;0.00;0.00;0.62;0.00;0.00;0.62;6.20;5.30;;;30.90;23.30;;;;;;2235545;62;20784;-64
2023/06/28 06:35:09;0.00;0.00;0.62;0.00;0.00;0.62;5.43;4.93;;;30.90;23.30;;;;;;2235954;62;20373;-64
2023/06/28 06:37:55;0.00;0.00;0.62;0.00;0.00;0.62;5.13;4.67;;;30.90;23.30;;;;;;2235584;62;20367;-63
2023/06/28 06:40:40;0.00;0.00;0.62;0.00;0.00;0.62;5.70;4.53;;;30.90;23.40;;;;;;2235843;62;20786;-64
2023/06/28 06:43:24;0.00;0.00;0.62;0.00;0.00;0.62;5.50;5.00;;;30.90;23.40;;;;;;2258061;48;20406;-64
2023/06/28 06:46:11;0.00;0.00;0.62;0.00;0.00;0.62;5.73;4.93;;;30.90;23.40;;;;;;2236207;62;20413;-64
2023/06/28 06:48:55;0.00;0.00;0.62;0.00;0.00;0.62;6.17;4.67;;;30.90;23.40;;;;;;2238993;62;20450;-64
2023/06/28 06:51:41;0.00;0.00;0.62;0.00;0.00;0.62;5.40;4.57;;;30.90;23.40;;;;;;2238301;62;20406;-64
2023/06/28 06:54:30;0.00;0.00;0.62;0.00;0.00;0.62;5.00;4.50;;;30.90;23.40;;;;;;2239264;61;20482;-64
2023/06/28 06:57:15;0.00;0.00;0.62;0.00;0.00;0.62;5.50;4.97;;;30.90;23.40;;;;;;2236187;62;20374;-64
2023/06/28 07:00:00;0.00;0.00;0.62;0.00;0.00;0.62;4.47;4.07;;;30.90;23.40;;;;;;2238776;62;20371;-64
2023/06/28 07:02:45;0.00;0.00;0.62;0.00;0.00;0.62;4.83;4.00;;;30.90;23.40;;;;;;2239191;62;20462;-64
2023/06/28 07:05:30;0.00;0.00;0.62;0.00;0.00;0.62;4.70;4.20;;;30.90;24.00;;;;;;2235127;62;20394;-63
2023/06/28 07:08:15;0.00;0.00;0.62;0.00;0.00;0.62;5.17;3.83;;;30.90;23.40;;;;;;2239114;62;20450;-64
2023/06/28 07:11:01;0.00;0.00;0.62;0.00;0.00;0.62;5.53;4.17;;;30.90;24.00;;;;;;2239443;62;20781;-63
2023/06/28 07:13:46;0.00;0.00;0.62;0.00;0.00;0.62;5.00;3.73;;;30.90;23.50;;;;;;2235475;62;20584;-64
2023/06/28 07:16:30;0.00;0.00;0.62;0.00;0.00;0.62;4.27;3.70;;;30.90;23.50;;;;;;2238929;62;20363;-62
2023/06/28 07:19:15;0.00;0.00;0.62;0.00;0.00;0.62;5.13;3.97;;;30.90;23.50;;;;;;2238928;62;20426;-63
2023/06/28 07:22:00;0.00;0.00;0.62;0.00;0.00;0.62;4.00;3.60;;;30.90;23.50;;;;;;2238764;62;20371;-64
2023/06/28 07:24:45;0.00;0.00;0.62;0.00;0.00;0.62;4.70;3.30;;;30.90;23.50;;;;;;2236347;62;20941;-63
2023/06/28 07:27:30;0.00;0.00;0.62;0.00;0.00;0.62;4.87;3.67;;;30.90;23.50;;;;;;2238302;62;21385;-63
2023/06/28 07:30:16;0.00;0.00;0.62;0.00;0.00;0.62;4.40;3.10;;;30.90;23.50;;;;;;2239907;62;20911;-64
2023/06/28 07:33:01;0.00;0.00;0.62;0.00;0.00;0.62;3.80;3.10;;;30.90;23.50;;;;;;2311326;48;20372;31
2023/06/28 07:35:45;0.00;0.00;0.62;0.00;0.00;0.62;4.80;3.60;;;30.90;23.50;;;;;;2229005;62;20417;-63
2023/06/28 07:38:30;0.00;0.00;0.62;0.00;0.00;0.62;3.77;2.90;;;30.90;23.50;;;;;;2227573;62;20400;-64
2023/06/28 07:41:15;0.00;0.00;0.62;0.00;0.00;0.62;3.43;2.93;;;30.90;23.50;;;;;;2228403;62;20404;-63
2023/06/28 07:44:01;0.00;0.00;0.62;0.00;0.00;0.62;4.27;3.13;;;30.90;23.50;;;;;;2227803;62;20470;-63
2023/06/28 07:46:45;0.00;0.00;0.62;0.00;0.00;0.62;3.43;3.13;;;30.90;23.50;;;;;;2228251;62;20393;-64
2023/06/28 07:49:30;0.00;0.00;0.62;0.00;0.00;0.62;3.43;3.10;;;30.90;23.50;;;;;;2227068;62;20369;-64
2023/06/28 07:52:15;0.00;0.00;0.62;0.00;0.00;0.62;3.37;2.80;;;30.90;23.60;;;;;;2228074;62;20380;-63
2023/06/28 07:55:02;0.00;0.00;0.62;0.00;0.00;0.62;4.17;2.83;;;30.90;23.60;;;;;;2228396;62;20389;-64
2023/06/28 07:57:47;0.00;0.00;0.62;0.00;0.00;0.62;3.33;2.70;;;30.90;23.60;;;;;;2227466;62;20440;-63
2023/06/28 08:00:32;0.00;0.00;0.62;0.00;0.00;0.62;3.20;2.33;;;30.90;23.60;;;;;;2227708;62;20421;-64
2023/06/28 08:03:19;0.00;0.00;0.62;0.00;0.00;0.62;3.10;2.80;;;30.90;23.60;;;;;;2227869;62;20810;-62
2023/06/28 08:06:04;0.00;0.00;0.62;0.00;0.00;0.62;2.80;2.20;;;30.90;23.60;;;;;;2227748;62;20904;-63
2023/06/28 08:08:50;0.00;0.00;0.62;0.00;0.00;0.62;3.27;2.60;;;30.90;23.60;;;;;;2227907;62;20388;-63
2023/06/28 08:11:35;0.00;0.00;0.62;0.00;0.00;0.62;3.37;2.87;;;30.90;23.60;;;;;;2227397;62;20943;-64
2023/06/28 08:14:20;0.00;0.00;0.62;0.00;0.00;0.62;3.10;2.40;;;30.90;23.60;;;;;;2228589;62;20392;-64
2023/06/28 08:17:06;0.00;0.00;0.62;0.00;0.00;0.62;3.67;2.73;;;30.90;23.60;;;;;;2228372;62;20365;-64
2023/06/28 08:19:51;0.00;0.00;0.62;0.00;0.00;0.62;3.83;2.70;;;30.90;23.60;;;;;;2226659;62;20973;-63
2023/06/28 08:22:36;0.00;0.00;0.62;0.00;0.00;0.62;2.83;2.13;;;30.90;23.60;;;;;;2228050;62;20571;-64
2023/06/28 08:25:20;0.00;0.00;0.62;0.00;0.00;0.62;3.83;2.83;;;30.90;23.60;;;;;;2227873;62;20477;-64
2023/06/28 08:28:05;0.00;0.00;0.62;0.00;0.00;0.62;3.80;2.70;;;30.90;23.60;;;;;;2227590;62;20369;-64
2023/06/28 08:30:50;0.00;0.00;0.62;0.00;0.00;0.62;4.00;2.67;;;30.90;23.60;;;;;;2228399;62;20397;-63
2023/06/28 08:33:35;0.00;0.00;0.62;0.00;0.00;0.62;3.40;2.63;;;30.90;23.60;;;;;;2227959;62;20402;-63
2023/06/28 08:36:21;0.00;0.00;0.62;0.00;0.00;0.62;2.70;2.50;;;30.90;23.60;;;;;;2228002;62;20374;-64
2023/06/28 08:39:05;0.00;0.00;0.62;0.00;0.00;0.62;3.30;2.60;;;30.90;23.60;;;;;;2227902;62;20434;-64
2023/06/28 08:41:52;0.00;0.00;0.62;0.00;0.00;0.62;3.60;2.20;;;30.90;23.60;;;;;;2227805;62;20468;-64
2023/06/28 08:44:38;0.00;0.00;0.62;0.00;0.00;0.62;4.53;2.93;;;30.90;23.60;;;;;;2228242;62;20405;-63
2023/06/28 08:47:27;0.00;0.00;0.62;0.00;0.00;0.62;2.50;2.20;;;31.00;23.70;;;;;;2228124;62;20394;-63
2023/06/28 08:50:14;0.00;0.00;0.62;0.00;0.00;0.62;3.33;2.67;;;31.00;23.70;;;;;;2226959;62;20369;-64
2023/06/28 08:53:02;0.00;0.00;0.62;0.00;0.00;0.62;2.87;2.40;;;30.90;23.60;;;;;;2228006;62;20405;-63
2023/06/28 08:55:47;0.00;0.00;0.62;0.00;0.00;0.62;2.40;2.20;;;31.00;23.70;;;;;;2228268;62;20453;-64
2023/06/28 08:58:34;0.00;0.00;0.62;0.00;0.00;0.62;2.70;2.27;;;31.00;23.70;;;;;;2227470;62;20395;-64
2023/06/28 09:01:22;0.00;0.00;0.62;0.00;0.00;0.62;2.43;2.10;;;31.00;23.70;;;;;;2228148;62;21017;-63
2023/06/28 09:04:06;0.00;0.00;0.62;0.00;0.00;0.62;2.30;2.00;;;31.00;23.70;;;;;;2227252;62;20475;-64
2023/06/28 09:06:53;0.00;0.00;0.62;0.00;0.00;0.62;2.87;2.20;;;31.00;23.70;;;;;;2227775;62;20368;-64
2023/06/28 09:09:41;0.00;0.00;0.62;0.00;0.00;0.62;3.50;2.17;;;31.00;23.70;;;;;;2227538;62;20377;-63
2023/06/28 09:12:26;0.00;0.00;0.62;0.00;0.00;0.62;3.17;2.23;;;31.00;23.70;;;;;;2227090;62;20399;-64
2023/06/28 09:15:12;0.00;0.00;0.62;0.00;0.00;0.62;2.40;1.80;;;31.00;23.70;;;;;;2228337;62;20939;-64
2023/06/28 09:17:57;0.00;0.00;0.62;0.00;0.00;0.62;3.00;1.90;;;31.00;23.70;;;;;;2227949;62;20394;-63
2023/06/28 09:20:49;0.00;0.00;0.62;0.00;0.00;0.62;2.50;2.00;;;31.00;23.70;;;;;;2228319;62;20373;-64
2023/06/28 09:23:35;0.00;0.00;0.62;0.00;0.00;0.62;2.20;1.80;;;31.00;23.70;;;;;;2227738;62;20393;-63
2023/06/28 09:26:21;0.00;0.00;0.62;0.00;0.00;0.62;2.50;1.87;;;31.00;23.70;;;;;;2227179;62;20886;-63
2023/06/28 09:29:08;0.00;0.00;0.62;0.00;0.00;0.62;1.93;1.63;;;31.00;23.70;;;;;;2227687;62;20400;-63
2023/06/28 09:31:54;0.00;0.00;0.62;0.00;0.00;0.62;3.10;1.80;;;31.00;23.70;;;;;;2228491;62;20382;-63
2023/06/28 09:34:40;0.00;0.00;0.62;0.00;0.00;0.62;2.67;2.07;;;31.00;23.70;;;;;;2226970;62;20402;-64
2023/06/28 09:37:29;0.00;0.00;0.62;0.00;0.00;0.62;2.90;2.17;;;31.00;23.70;;;;;;2228151;62;20372;-64
2023/06/28 09:40:17;0.00;0.00;0.62;0.00;0.00;0.62;2.60;2.10;;;31.00;23.70;;;;;;2227380;62;20369;-61
2023/06/28 09:43:02;0.00;0.00;0.62;0.00;0.00;0.62;2.20;1.83;;;31.00;23.70;;;;;;2227928;62;20412;-64
2023/06/28 09:45:48;0.00;0.00;0.62;0.00;0.00;0.62;2.10;1.77;;;31.00;23.70;;;;;;2227889;62;20449;-64
2023/06/28 09:48:36;0.00;0.00;0.62;0.00;0.00;0.62;2.80;2.10;;;31.00;23.70;;;;;;2226623;62;20398;-63
2023/06/28 09:51:23;0.00;0.00;0.62;0.00;0.00;0.62;2.60;1.93;;;31.00;23.70;;;;;;2227804;62;20397;-64
2023/06/28 09:54:08;0.00;0.00;0.62;0.00;0.00;0.62;2.30;1.97;;;31.00;23.70;;;;;;2227475;62;20388;-64
2023/06/28 09:56:55;0.00;0.00;0.62;0.00;0.00;0.62;2.17;1.90;;;31.00;23.70;;;;;;2227262;62;20361;-64
2023/06/28 09:59:41;0.00;0.00;0.62;0.00;0.00;0.62;2.23;1.73;;;31.00;23.70;;;;;;2227258;62;20469;-63
2023/06/28 10:02:27;0.00;0.00;0.62;0.00;0.00;0.62;2.13;1.53;;;31.00;23.70;;;;;;2227403;62;20398;-61
2023/06/28 10:05:13;0.00;0.00;0.62;0.00;0.00;0.62;2.40;1.60;;;31.00;23.70;;;;;;2227866;62;20400;-63
2023/06/28 10:08:00;0.00;0.00;0.62;0.00;0.00;0.62;2.30;1.80;;;31.10;23.70;;;;;;2228337;62;20429;-64
2023/06/28 10:10:47;0.00;0.00;0.62;0.00;0.00;0.62;2.73;2.00;;;31.10;23.80;;;;;;2227129;62;20369;-62
2023/06/28 10:13:34;0.00;0.00;0.62;0.00;0.00;0.62;2.30;1.73;;;31.10;23.80;;;;;;2227800;62;20440;-64
2023/06/28 10:16:24;0.00;0.00;0.62;0.00;0.00;0.62;2.33;1.60;;;31.10;23.80;;;;;;2227908;62;20393;-63
2023/06/28 10:19:10;0.00;0.00;0.62;0.00;0.00;0.62;2.60;1.63;;;31.10;23.80;;;;;;2226539;62;20364;-62
2023/06/28 10:21:56;0.00;0.00;0.62;0.00;0.00;0.62;2.50;1.67;;;31.10;23.80;;;;;;2227807;62;20373;-64
2023/06/28 10:24:42;0.00;0.00;0.62;0.00;0.00;0.62;2.13;1.37;;;31.10;23.80;;;;;;2227813;62;21018;-62
2023/06/28 10:27:28;0.00;0.00;0.62;0.00;0.00;0.62;2.97;1.97;;;31.10;23.80;;;;;;2227968;62;20451;-62
2023/06/28 10:30:14;0.00;0.00;0.62;0.00;0.00;0.62;2.77;1.80;;;31.10;23.80;;;;;;2227825;62;20372;-62
2023/06/28 10:33:00;0.00;0.00;0.62;0.00;0.00;0.62;1.97;1.50;;;31.10;24.40;;;;;;2227194;62;20420;-63
2023/06/28 10:35:45;0.00;0.00;0.62;0.00;0.00;0.62;1.93;1.60;;;31.10;24.30;;;;;;2227869;62;20387;-63
2023/06/28 10:38:33;0.00;0.00;0.62;0.00;0.00;0.62;2.40;1.67;;;31.10;23.80;;;;;;2227757;62;20394;-64
2023/06/28 10:41:19;0.00;0.00;0.62;0.00;0.00;0.62;2.13;1.27;;;31.10;23.80;;;;;;2226779;62;20404;-63
2023/06/28 10:44:05;0.00;0.00;0.62;0.00;0.00;0.62;2.80;1.40;;;31.10;23.80;;;;;;2227557;62;20456;-65
2023/06/28 10:47:09;0.00;0.00;0.62;0.00;0.00;0.62;2.60;1.70;;;31.10;23.80;;;;;;2228112;62;20453;-61
2023/06/28 10:50:09;0.00;0.00;0.62;0.00;0.00;0.62;2.33;1.27;;;31.10;23.80;;;;;;2227522;62;20398;-63
2023/06/28 10:52:56;0.00;0.00;0.62;0.00;0.00;0.62;1.80;1.40;;;31.10;23.80;;;;;;2227685;62;20436;-64
2023/06/28 10:56:08;0.00;0.00;0.62;0.00;0.00;0.62;2.30;1.43;;;31.20;23.90;;;;;;2227312;62;20404;-64